sensor_id;sensor_type;location;lat;lon;timestamp;P1;durP1;ratioP1;P2;durP2;ratioP2
28551;SDS011;15752;49.560;8.708;2022-12-07T00:01:44;8.80;;;6.73;;
28551;SDS011;15752;49.560;8.708;2022-12-07T00:04:14;8.73;;;7.03;;
28551;SDS011;15752;49.560;8.708;2022-12-07T00:06:50;9.67;;;7.03;;
28551;SDS011;15752;49.560;8.708;2022-12-07T00:09:20;7.37;;;6.27;;
28551;SDS011;15752;49.560;8.708;2022-12-07T00:11:50;6.87;;;5.87;;
28551;SDS011;15752;49.560;8.708;2022-12-07T00:14:19;7.40;;;5.90;;
28551;SDS011;15752;49.560;8.708;2022-12-07T00:16:48;8.03;;;5.60;;
28551;SDS011;15752;49.560;8.708;2022-12-07T00:19:17;7.27;;;5.40;;
28551;SDS011;15752;49.560;8.708;2022-12-07T00:21:46;6.50;;;5.40;;
28551;SDS011;15752;49.560;8.708;2022-12-07T00:24:14;6.90;;;5.40;;
28551;SDS011;15752;49.560;8.708;2022-12-07T00:26:43;7.53;;;5.80;;
28551;SDS011;15752;49.560;8.708;2022-12-07T00:29:14;6.93;;;5.83;;
28551;SDS011;15752;49.560;8.708;2022-12-07T00:31:45;7.37;;;6.30;;
28551;SDS011;15752;49.560;8.708;2022-12-07T00:34:14;10.57;;;7.70;;
28551;SDS011;15752;49.560;8.708;2022-12-07T00:36:45;6.80;;;6.03;;
28551;SDS011;15752;49.560;8.708;2022-12-07T00:39:14;7.13;;;6.03;;
28551;SDS011;15752;49.560;8.708;2022-12-07T00:41:43;7.90;;;5.60;;
28551;SDS011;15752;49.560;8.708;2022-12-07T00:44:13;9.33;;;6.13;;
28551;SDS011;15752;49.560;8.708;2022-12-07T00:46:41;7.70;;;6.30;;
28551;SDS011;15752;49.560;8.708;2022-12-07T00:49:11;8.73;;;7.07;;
28551;SDS011;15752;49.560;8.708;2022-12-07T00:51:40;8.10;;;6.80;;
28551;SDS011;15752;49.560;8.708;2022-12-07T00:54:08;10.60;;;8.23;;
28551;SDS011;15752;49.560;8.708;2022-12-07T00:56:37;9.73;;;8.00;;
28551;SDS011;15752;49.560;8.708;2022-12-07T00:59:05;8.77;;;6.60;;
28551;SDS011;15752;49.560;8.708;2022-12-07T01:01:35;8.60;;;6.43;;
28551;SDS011;15752;49.560;8.708;2022-12-07T01:04:04;8.93;;;6.77;;
28551;SDS011;15752;49.560;8.708;2022-12-07T01:06:33;9.57;;;6.83;;
28551;SDS011;15752;49.560;8.708;2022-12-07T01:09:02;8.77;;;6.63;;
28551;SDS011;15752;49.560;8.708;2022-12-07T01:11:31;7.83;;;6.17;;
28551;SDS011;15752;49.560;8.708;2022-12-07T01:14:00;7.87;;;5.83;;
28551;SDS011;15752;49.560;8.708;2022-12-07T01:16:29;7.73;;;5.83;;
28551;SDS011;15752;49.560;8.708;2022-12-07T01:19:01;10.77;;;6.43;;
28551;SDS011;15752;49.560;8.708;2022-12-07T01:21:32;6.83;;;5.20;;
28551;SDS011;15752;49.560;8.708;2022-12-07T01:24:04;5.97;;;4.73;;
28551;SDS011;15752;49.560;8.708;2022-12-07T01:26:36;6.70;;;5.47;;
28551;SDS011;15752;49.560;8.708;2022-12-07T01:29:04;6.60;;;4.57;;
28551;SDS011;15752;49.560;8.708;2022-12-07T01:31:33;5.30;;;4.80;;
28551;SDS011;15752;49.560;8.708;2022-12-07T01:34:03;7.90;;;5.20;;
28551;SDS011;15752;49.560;8.708;2022-12-07T01:36:31;6.03;;;4.70;;
28551;SDS011;15752;49.560;8.708;2022-12-07T01:39:04;6.73;;;4.93;;
28551;SDS011;15752;49.560;8.708;2022-12-07T01:41:35;9.43;;;7.10;;
28551;SDS011;15752;49.560;8.708;2022-12-07T01:44:08;8.23;;;6.10;;
28551;SDS011;15752;49.560;8.708;2022-12-07T01:46:44;8.07;;;6.37;;
28551;SDS011;15752;49.560;8.708;2022-12-07T01:49:17;8.57;;;6.70;;
28551;SDS011;15752;49.560;8.708;2022-12-07T01:51:54;8.27;;;6.20;;
28551;SDS011;15752;49.560;8.708;2022-12-07T01:54:29;10.63;;;6.70;;
28551;SDS011;15752;49.560;8.708;2022-12-07T01:56:58;9.90;;;6.63;;
28551;SDS011;15752;49.560;8.708;2022-12-07T01:59:27;9.23;;;7.00;;
28551;SDS011;15752;49.560;8.708;2022-12-07T02:01:56;10.43;;;6.53;;
28551;SDS011;15752;49.560;8.708;2022-12-07T02:04:26;10.70;;;7.20;;
28551;SDS011;15752;49.560;8.708;2022-12-07T02:06:55;10.83;;;8.10;;
28551;SDS011;15752;49.560;8.708;2022-12-07T02:09:25;8.63;;;7.13;;
28551;SDS011;15752;49.560;8.708;2022-12-07T02:11:53;9.30;;;7.30;;
28551;SDS011;15752;49.560;8.708;2022-12-07T02:14:23;9.73;;;7.97;;
28551;SDS011;15752;49.560;8.708;2022-12-07T02:16:55;9.20;;;7.17;;
28551;SDS011;15752;49.560;8.708;2022-12-07T02:22:54;12.70;;;9.60;;
28551;SDS011;15752;49.560;8.708;2022-12-07T02:25:48;12.23;;;9.30;;
28551;SDS011;15752;49.560;8.708;2022-12-07T02:28:31;10.97;;;8.13;;
28551;SDS011;15752;49.560;8.708;2022-12-07T02:31:05;12.30;;;9.03;;
28551;SDS011;15752;49.560;8.708;2022-12-07T02:33:40;11.87;;;8.23;;
28551;SDS011;15752;49.560;8.708;2022-12-07T02:36:14;10.90;;;8.50;;
28551;SDS011;15752;49.560;8.708;2022-12-07T02:38:48;11.90;;;9.00;;
28551;SDS011;15752;49.560;8.708;2022-12-07T02:41:24;11.97;;;8.60;;
28551;SDS011;15752;49.560;8.708;2022-12-07T02:43:58;11.80;;;9.70;;
28551;SDS011;15752;49.560;8.708;2022-12-07T02:46:32;10.63;;;8.63;;
28551;SDS011;15752;49.560;8.708;2022-12-07T02:49:05;9.77;;;8.17;;
28551;SDS011;15752;49.560;8.708;2022-12-07T02:51:38;10.13;;;7.60;;
28551;SDS011;15752;49.560;8.708;2022-12-07T02:54:09;8.63;;;7.10;;
28551;SDS011;15752;49.560;8.708;2022-12-07T02:56:43;11.03;;;8.43;;
28551;SDS011;15752;49.560;8.708;2022-12-07T02:59:20;9.70;;;7.77;;
28551;SDS011;15752;49.560;8.708;2022-12-07T03:02:03;10.70;;;7.90;;
28551;SDS011;15752;49.560;8.708;2022-12-07T03:04:43;11.07;;;7.73;;
28551;SDS011;15752;49.560;8.708;2022-12-07T03:07:21;8.53;;;6.20;;
28551;SDS011;15752;49.560;8.708;2022-12-07T03:10:01;8.67;;;6.17;;
28551;SDS011;15752;49.560;8.708;2022-12-07T03:12:37;9.77;;;6.60;;
28551;SDS011;15752;49.560;8.708;2022-12-07T03:15:13;7.10;;;5.53;;
28551;SDS011;15752;49.560;8.708;2022-12-07T03:17:52;7.33;;;5.43;;
28551;SDS011;15752;49.560;8.708;2022-12-07T03:20:24;8.90;;;6.10;;
28551;SDS011;15752;49.560;8.708;2022-12-07T03:22:55;6.77;;;5.87;;
28551;SDS011;15752;49.560;8.708;2022-12-07T03:25:25;8.03;;;5.73;;
28551;SDS011;15752;49.560;8.708;2022-12-07T03:27:55;8.53;;;6.07;;
28551;SDS011;15752;49.560;8.708;2022-12-07T03:30:28;6.97;;;5.53;;
28551;SDS011;15752;49.560;8.708;2022-12-07T03:33:03;6.77;;;5.77;;
28551;SDS011;15752;49.560;8.708;2022-12-07T03:35:38;7.63;;;5.40;;
28551;SDS011;15752;49.560;8.708;2022-12-07T03:38:13;7.73;;;5.47;;
28551;SDS011;15752;49.560;8.708;2022-12-07T03:40:47;6.70;;;5.20;;
28551;SDS011;15752;49.560;8.708;2022-12-07T03:43:21;6.80;;;5.13;;
28551;SDS011;15752;49.560;8.708;2022-12-07T03:45:51;8.07;;;5.80;;
28551;SDS011;15752;49.560;8.708;2022-12-07T03:48:32;8.00;;;5.63;;
28551;SDS011;15752;49.560;8.708;2022-12-07T03:51:06;6.70;;;4.90;;
28551;SDS011;15752;49.560;8.708;2022-12-07T03:53:42;7.87;;;5.17;;
28551;SDS011;15752;49.560;8.708;2022-12-07T03:56:16;7.70;;;5.93;;
28551;SDS011;15752;49.560;8.708;2022-12-07T03:58:46;6.33;;;4.93;;
28551;SDS011;15752;49.560;8.708;2022-12-07T04:01:15;6.87;;;5.17;;
28551;SDS011;15752;49.560;8.708;2022-12-07T04:03:46;6.70;;;4.97;;
28551;SDS011;15752;49.560;8.708;2022-12-07T04:06:15;7.93;;;5.07;;
28551;SDS011;15752;49.560;8.708;2022-12-07T04:08:43;8.27;;;5.17;;
28551;SDS011;15752;49.560;8.708;2022-12-07T04:11:12;6.67;;;5.37;;
28551;SDS011;15752;49.560;8.708;2022-12-07T04:13:40;9.03;;;5.60;;
28551;SDS011;15752;49.560;8.708;2022-12-07T04:16:26;7.00;;;4.90;;
28551;SDS011;15752;49.560;8.708;2022-12-07T04:18:56;8.50;;;5.10;;
28551;SDS011;15752;49.560;8.708;2022-12-07T04:21:25;7.17;;;5.40;;
28551;SDS011;15752;49.560;8.708;2022-12-07T04:23:53;7.37;;;5.10;;
28551;SDS011;15752;49.560;8.708;2022-12-07T04:26:21;6.57;;;4.90;;
28551;SDS011;15752;49.560;8.708;2022-12-07T04:28:50;7.63;;;4.60;;
28551;SDS011;15752;49.560;8.708;2022-12-07T04:31:19;6.97;;;5.73;;
28551;SDS011;15752;49.560;8.708;2022-12-07T04:33:47;7.60;;;5.70;;
28551;SDS011;15752;49.560;8.708;2022-12-07T04:36:17;6.37;;;4.67;;
28551;SDS011;15752;49.560;8.708;2022-12-07T04:38:46;6.20;;;4.97;;
28551;SDS011;15752;49.560;8.708;2022-12-07T04:41:14;8.30;;;5.40;;
28551;SDS011;15752;49.560;8.708;2022-12-07T04:43:43;6.53;;;5.03;;
28551;SDS011;15752;49.560;8.708;2022-12-07T04:46:12;7.13;;;5.17;;
28551;SDS011;15752;49.560;8.708;2022-12-07T04:48:41;8.40;;;5.50;;
28551;SDS011;15752;49.560;8.708;2022-12-07T04:51:10;6.47;;;5.17;;
28551;SDS011;15752;49.560;8.708;2022-12-07T04:53:40;6.37;;;4.87;;
28551;SDS011;15752;49.560;8.708;2022-12-07T04:56:08;6.30;;;5.03;;
28551;SDS011;15752;49.560;8.708;2022-12-07T04:58:37;5.63;;;4.27;;
28551;SDS011;15752;49.560;8.708;2022-12-07T05:01:06;5.40;;;4.37;;
28551;SDS011;15752;49.560;8.708;2022-12-07T05:03:35;6.80;;;4.60;;
28551;SDS011;15752;49.560;8.708;2022-12-07T05:06:04;4.90;;;3.83;;
28551;SDS011;15752;49.560;8.708;2022-12-07T05:08:40;5.23;;;4.40;;
28551;SDS011;15752;49.560;8.708;2022-12-07T05:11:09;5.57;;;4.10;;
28551;SDS011;15752;49.560;8.708;2022-12-07T05:14:00;4.87;;;4.17;;
28551;SDS011;15752;49.560;8.708;2022-12-07T05:16:29;5.77;;;4.30;;
28551;SDS011;15752;49.560;8.708;2022-12-07T05:18:58;7.33;;;4.93;;
28551;SDS011;15752;49.560;8.708;2022-12-07T05:21:27;4.47;;;3.33;;
28551;SDS011;15752;49.560;8.708;2022-12-07T05:23:56;6.70;;;5.00;;
28551;SDS011;15752;49.560;8.708;2022-12-07T05:26:25;4.90;;;3.77;;
28551;SDS011;15752;49.560;8.708;2022-12-07T05:28:54;5.43;;;4.17;;
28551;SDS011;15752;49.560;8.708;2022-12-07T05:31:25;6.00;;;4.30;;
28551;SDS011;15752;49.560;8.708;2022-12-07T05:33:54;6.93;;;4.33;;
28551;SDS011;15752;49.560;8.708;2022-12-07T05:36:22;7.53;;;4.60;;
28551;SDS011;15752;49.560;8.708;2022-12-07T05:38:51;13.60;;;9.53;;
28551;SDS011;15752;49.560;8.708;2022-12-07T05:41:21;12.90;;;9.17;;
28551;SDS011;15752;49.560;8.708;2022-12-07T05:44:06;11.10;;;7.80;;
28551;SDS011;15752;49.560;8.708;2022-12-07T05:46:35;8.77;;;6.50;;
28551;SDS011;15752;49.560;8.708;2022-12-07T05:49:04;9.80;;;7.10;;
28551;SDS011;15752;49.560;8.708;2022-12-07T05:51:33;8.33;;;6.83;;
28551;SDS011;15752;49.560;8.708;2022-12-07T05:54:04;12.77;;;8.97;;
28551;SDS011;15752;49.560;8.708;2022-12-07T05:56:34;14.93;;;11.17;;
28551;SDS011;15752;49.560;8.708;2022-12-07T05:59:02;15.40;;;10.23;;
28551;SDS011;15752;49.560;8.708;2022-12-07T06:01:48;10.23;;;8.37;;
28551;SDS011;15752;49.560;8.708;2022-12-07T06:04:17;9.87;;;7.27;;
28551;SDS011;15752;49.560;8.708;2022-12-07T06:06:47;10.93;;;6.43;;
28551;SDS011;15752;49.560;8.708;2022-12-07T06:09:16;9.47;;;6.63;;
28551;SDS011;15752;49.560;8.708;2022-12-07T06:11:46;10.37;;;6.47;;
28551;SDS011;15752;49.560;8.708;2022-12-07T06:14:32;8.33;;;5.83;;
28551;SDS011;15752;49.560;8.708;2022-12-07T06:17:00;8.00;;;5.80;;
28551;SDS011;15752;49.560;8.708;2022-12-07T06:19:29;8.83;;;5.77;;
28551;SDS011;15752;49.560;8.708;2022-12-07T06:21:57;8.10;;;5.90;;
28551;SDS011;15752;49.560;8.708;2022-12-07T06:24:26;11.03;;;7.43;;
28551;SDS011;15752;49.560;8.708;2022-12-07T06:26:57;10.57;;;6.57;;
28551;SDS011;15752;49.560;8.708;2022-12-07T06:29:25;6.53;;;5.10;;
28551;SDS011;15752;49.560;8.708;2022-12-07T06:31:54;7.60;;;5.80;;
28551;SDS011;15752;49.560;8.708;2022-12-07T06:34:23;8.73;;;5.77;;
28551;SDS011;15752;49.560;8.708;2022-12-07T06:36:53;9.30;;;6.27;;
28551;SDS011;15752;49.560;8.708;2022-12-07T06:39:22;9.77;;;7.50;;
28551;SDS011;15752;49.560;8.708;2022-12-07T06:41:52;8.53;;;6.00;;
28551;SDS011;15752;49.560;8.708;2022-12-07T06:44:23;8.90;;;7.10;;
28551;SDS011;15752;49.560;8.708;2022-12-07T06:46:52;12.13;;;8.67;;
28551;SDS011;15752;49.560;8.708;2022-12-07T06:49:40;11.77;;;7.43;;
28551;SDS011;15752;49.560;8.708;2022-12-07T06:52:09;12.13;;;7.77;;
28551;SDS011;15752;49.560;8.708;2022-12-07T06:54:37;10.70;;;7.73;;
28551;SDS011;15752;49.560;8.708;2022-12-07T06:57:06;18.17;;;11.17;;
28551;SDS011;15752;49.560;8.708;2022-12-07T06:59:35;12.90;;;9.17;;
28551;SDS011;15752;49.560;8.708;2022-12-07T07:02:04;11.67;;;7.67;;
28551;SDS011;15752;49.560;8.708;2022-12-07T07:04:33;11.40;;;8.23;;
28551;SDS011;15752;49.560;8.708;2022-12-07T07:07:30;13.10;;;8.53;;
28551;SDS011;15752;49.560;8.708;2022-12-07T07:10:19;22.00;;;12.23;;
28551;SDS011;15752;49.560;8.708;2022-12-07T07:12:47;14.73;;;9.03;;
28551;SDS011;15752;49.560;8.708;2022-12-07T07:15:24;13.03;;;9.87;;
28551;SDS011;15752;49.560;8.708;2022-12-07T07:17:52;14.97;;;10.60;;
28551;SDS011;15752;49.560;8.708;2022-12-07T07:20:21;13.20;;;10.20;;
28551;SDS011;15752;49.560;8.708;2022-12-07T07:22:50;14.63;;;11.23;;
28551;SDS011;15752;49.560;8.708;2022-12-07T07:25:21;13.43;;;9.13;;
28551;SDS011;15752;49.560;8.708;2022-12-07T07:27:50;11.10;;;8.80;;
28551;SDS011;15752;49.560;8.708;2022-12-07T07:30:18;9.90;;;8.00;;
28551;SDS011;15752;49.560;8.708;2022-12-07T07:32:48;10.40;;;7.80;;
28551;SDS011;15752;49.560;8.708;2022-12-07T07:35:17;9.00;;;6.93;;
28551;SDS011;15752;49.560;8.708;2022-12-07T07:37:45;8.70;;;6.23;;
28551;SDS011;15752;49.560;8.708;2022-12-07T07:40:14;6.20;;;5.37;;
28551;SDS011;15752;49.560;8.708;2022-12-07T07:42:42;8.60;;;6.00;;
28551;SDS011;15752;49.560;8.708;2022-12-07T07:45:11;8.63;;;6.20;;
28551;SDS011;15752;49.560;8.708;2022-12-07T07:47:39;7.20;;;5.50;;
28551;SDS011;15752;49.560;8.708;2022-12-07T07:50:09;6.50;;;5.90;;
28551;SDS011;15752;49.560;8.708;2022-12-07T07:52:38;7.83;;;5.90;;
28551;SDS011;15752;49.560;8.708;2022-12-07T07:55:07;6.07;;;5.43;;
28551;SDS011;15752;49.560;8.708;2022-12-07T07:57:36;7.10;;;5.43;;
28551;SDS011;15752;49.560;8.708;2022-12-07T08:00:07;8.77;;;5.77;;
28551;SDS011;15752;49.560;8.708;2022-12-07T08:02:38;6.57;;;5.00;;
28551;SDS011;15752;49.560;8.708;2022-12-07T08:05:06;7.40;;;5.60;;
28551;SDS011;15752;49.560;8.708;2022-12-07T08:07:37;6.90;;;5.90;;
28551;SDS011;15752;49.560;8.708;2022-12-07T08:10:07;8.27;;;5.97;;
28551;SDS011;15752;49.560;8.708;2022-12-07T08:12:39;9.07;;;6.43;;
28551;SDS011;15752;49.560;8.708;2022-12-07T08:15:25;7.43;;;5.70;;
28551;SDS011;15752;49.560;8.708;2022-12-07T08:17:54;8.03;;;5.87;;
28551;SDS011;15752;49.560;8.708;2022-12-07T08:20:24;8.07;;;5.80;;
28551;SDS011;15752;49.560;8.708;2022-12-07T08:22:53;10.23;;;7.33;;
28551;SDS011;15752;49.560;8.708;2022-12-07T08:25:21;9.00;;;7.00;;
28551;SDS011;15752;49.560;8.708;2022-12-07T08:27:50;9.07;;;7.20;;
28551;SDS011;15752;49.560;8.708;2022-12-07T08:30:19;8.17;;;6.40;;
28551;SDS011;15752;49.560;8.708;2022-12-07T08:32:49;9.63;;;7.03;;
28551;SDS011;15752;49.560;8.708;2022-12-07T08:35:17;8.60;;;6.67;;
28551;SDS011;15752;49.560;8.708;2022-12-07T08:37:47;10.47;;;6.43;;
28551;SDS011;15752;49.560;8.708;2022-12-07T08:40:16;7.23;;;5.80;;
28551;SDS011;15752;49.560;8.708;2022-12-07T08:42:48;8.70;;;6.13;;
28551;SDS011;15752;49.560;8.708;2022-12-07T08:45:17;9.23;;;7.07;;
28551;SDS011;15752;49.560;8.708;2022-12-07T08:47:53;9.57;;;6.93;;
28551;SDS011;15752;49.560;8.708;2022-12-07T08:50:25;7.50;;;6.07;;
28551;SDS011;15752;49.560;8.708;2022-12-07T08:52:56;8.43;;;6.23;;
28551;SDS011;15752;49.560;8.708;2022-12-07T08:55:26;10.43;;;7.00;;
28551;SDS011;15752;49.560;8.708;2022-12-07T08:57:56;8.10;;;6.40;;
28551;SDS011;15752;49.560;8.708;2022-12-07T09:00:26;9.03;;;6.20;;
28551;SDS011;15752;49.560;8.708;2022-12-07T09:02:54;8.90;;;6.30;;
28551;SDS011;15752;49.560;8.708;2022-12-07T09:05:23;7.67;;;6.57;;
28551;SDS011;15752;49.560;8.708;2022-12-07T09:07:52;9.10;;;6.57;;
28551;SDS011;15752;49.560;8.708;2022-12-07T09:10:27;8.20;;;5.80;;
28551;SDS011;15752;49.560;8.708;2022-12-07T09:12:56;9.93;;;5.90;;
28551;SDS011;15752;49.560;8.708;2022-12-07T09:15:27;8.33;;;6.03;;
28551;SDS011;15752;49.560;8.708;2022-12-07T09:17:56;8.73;;;5.70;;
28551;SDS011;15752;49.560;8.708;2022-12-07T09:20:25;7.63;;;6.00;;
28551;SDS011;15752;49.560;8.708;2022-12-07T09:22:53;10.97;;;6.67;;
28551;SDS011;15752;49.560;8.708;2022-12-07T09:25:23;9.47;;;6.73;;
28551;SDS011;15752;49.560;8.708;2022-12-07T09:27:57;7.43;;;6.23;;
28551;SDS011;15752;49.560;8.708;2022-12-07T09:30:26;9.17;;;6.57;;
28551;SDS011;15752;49.560;8.708;2022-12-07T09:32:56;9.67;;;7.00;;
28551;SDS011;15752;49.560;8.708;2022-12-07T09:35:25;7.80;;;5.80;;
28551;SDS011;15752;49.560;8.708;2022-12-07T09:37:55;9.20;;;6.27;;
28551;SDS011;15752;49.560;8.708;2022-12-07T09:40:23;7.97;;;5.70;;
28551;SDS011;15752;49.560;8.708;2022-12-07T09:42:53;8.83;;;6.40;;
28551;SDS011;15752;49.560;8.708;2022-12-07T09:45:23;8.50;;;6.93;;
28551;SDS011;15752;49.560;8.708;2022-12-07T09:47:56;9.97;;;6.60;;
28551;SDS011;15752;49.560;8.708;2022-12-07T09:50:26;8.33;;;6.57;;
28551;SDS011;15752;49.560;8.708;2022-12-07T09:53:03;11.27;;;7.10;;
28551;SDS011;15752;49.560;8.708;2022-12-07T09:55:38;9.83;;;6.80;;
28551;SDS011;15752;49.560;8.708;2022-12-07T09:58:09;9.53;;;7.10;;
28551;SDS011;15752;49.560;8.708;2022-12-07T10:00:47;8.30;;;6.87;;
28551;SDS011;15752;49.560;8.708;2022-12-07T10:03:16;8.47;;;6.67;;
28551;SDS011;15752;49.560;8.708;2022-12-07T10:05:45;9.40;;;6.33;;
28551;SDS011;15752;49.560;8.708;2022-12-07T10:08:18;8.70;;;6.33;;
28551;SDS011;15752;49.560;8.708;2022-12-07T10:10:49;7.83;;;6.17;;
28551;SDS011;15752;49.560;8.708;2022-12-07T10:13:20;7.67;;;6.07;;
28551;SDS011;15752;49.560;8.708;2022-12-07T10:16:01;7.93;;;5.47;;
28551;SDS011;15752;49.560;8.708;2022-12-07T10:18:33;8.33;;;5.90;;
28551;SDS011;15752;49.560;8.708;2022-12-07T10:21:10;8.27;;;6.30;;
28551;SDS011;15752;49.560;8.708;2022-12-07T10:23:58;7.07;;;5.67;;
28551;SDS011;15752;49.560;8.708;2022-12-07T10:26:30;8.90;;;6.40;;
28551;SDS011;15752;49.560;8.708;2022-12-07T10:29:02;10.00;;;7.00;;
28551;SDS011;15752;49.560;8.708;2022-12-07T10:31:42;9.63;;;7.17;;
28551;SDS011;15752;49.560;8.708;2022-12-07T10:34:15;8.13;;;6.33;;
28551;SDS011;15752;49.560;8.708;2022-12-07T10:36:51;9.57;;;6.80;;
28551;SDS011;15752;49.560;8.708;2022-12-07T10:39:23;10.57;;;6.93;;
28551;SDS011;15752;49.560;8.708;2022-12-07T10:41:55;11.80;;;7.03;;
28551;SDS011;15752;49.560;8.708;2022-12-07T10:44:26;8.93;;;6.20;;
28551;SDS011;15752;49.560;8.708;2022-12-07T10:47:05;8.70;;;6.70;;
28551;SDS011;15752;49.560;8.708;2022-12-07T10:50:06;7.97;;;6.10;;
28551;SDS011;15752;49.560;8.708;2022-12-07T10:53:15;14.63;;;7.70;;
28551;SDS011;15752;49.560;8.708;2022-12-07T10:56:05;8.07;;;5.90;;
28551;SDS011;15752;49.560;8.708;2022-12-07T10:59:11;8.50;;;6.40;;
28551;SDS011;15752;49.560;8.708;2022-12-07T11:02:27;9.37;;;6.63;;
28551;SDS011;15752;49.560;8.708;2022-12-07T11:05:22;10.73;;;7.20;;
28551;SDS011;15752;49.560;8.708;2022-12-07T11:07:59;9.47;;;6.53;;
28551;SDS011;15752;49.560;8.708;2022-12-07T11:10:38;10.40;;;7.93;;
28551;SDS011;15752;49.560;8.708;2022-12-07T11:13:17;8.57;;;6.67;;
28551;SDS011;15752;49.560;8.708;2022-12-07T11:18:51;10.93;;;8.80;;
28551;SDS011;15752;49.560;8.708;2022-12-07T11:21:43;11.77;;;8.80;;
28551;SDS011;15752;49.560;8.708;2022-12-07T11:24:23;10.23;;;6.80;;
28551;SDS011;15752;49.560;8.708;2022-12-07T11:27:07;10.47;;;7.60;;
28551;SDS011;15752;49.560;8.708;2022-12-07T11:29:49;11.20;;;8.47;;
28551;SDS011;15752;49.560;8.708;2022-12-07T11:32:42;10.20;;;7.60;;
28551;SDS011;15752;49.560;8.708;2022-12-07T11:35:22;9.03;;;6.93;;
28551;SDS011;15752;49.560;8.708;2022-12-07T11:38:07;8.97;;;7.00;;
28551;SDS011;15752;49.560;8.708;2022-12-07T11:40:40;23.40;;;17.07;;
28551;SDS011;15752;49.560;8.708;2022-12-07T11:43:13;28.63;;;20.70;;
28551;SDS011;15752;49.560;8.708;2022-12-07T11:45:52;29.07;;;20.23;;
28551;SDS011;15752;49.560;8.708;2022-12-07T11:48:29;20.13;;;11.83;;
28551;SDS011;15752;49.560;8.708;2022-12-07T11:51:01;16.40;;;12.23;;
28551;SDS011;15752;49.560;8.708;2022-12-07T11:53:32;18.70;;;13.83;;
28551;SDS011;15752;49.560;8.708;2022-12-07T11:56:08;22.00;;;15.50;;
28551;SDS011;15752;49.560;8.708;2022-12-07T11:58:46;18.10;;;12.83;;
28551;SDS011;15752;49.560;8.708;2022-12-07T12:04:23;15.10;;;11.77;;
28551;SDS011;15752;49.560;8.708;2022-12-07T12:06:59;14.53;;;10.80;;
28551;SDS011;15752;49.560;8.708;2022-12-07T12:09:48;13.33;;;8.63;;
28551;SDS011;15752;49.560;8.708;2022-12-07T12:12:25;12.27;;;9.20;;
28551;SDS011;15752;49.560;8.708;2022-12-07T12:15:53;14.77;;;10.00;;
28551;SDS011;15752;49.560;8.708;2022-12-07T12:18:42;24.00;;;15.67;;
28551;SDS011;15752;49.560;8.708;2022-12-07T12:21:29;22.50;;;13.03;;
28551;SDS011;15752;49.560;8.708;2022-12-07T12:24:05;12.53;;;9.53;;
28551;SDS011;15752;49.560;8.708;2022-12-07T12:26:40;12.73;;;8.53;;
28551;SDS011;15752;49.560;8.708;2022-12-07T12:29:20;10.40;;;8.03;;
28551;SDS011;15752;49.560;8.708;2022-12-07T12:32:05;10.37;;;7.60;;
28551;SDS011;15752;49.560;8.708;2022-12-07T12:35:00;10.80;;;8.27;;
28551;SDS011;15752;49.560;8.708;2022-12-07T12:37:50;9.23;;;6.97;;
28551;SDS011;15752;49.560;8.708;2022-12-07T12:59:24;7.50;;;5.93;;
28551;SDS011;15752;49.560;8.708;2022-12-07T13:02:15;14.83;;;7.97;;
28551;SDS011;15752;49.560;8.708;2022-12-07T13:04:52;10.37;;;7.23;;
28551;SDS011;15752;49.560;8.708;2022-12-07T13:10:40;9.57;;;7.20;;
28551;SDS011;15752;49.560;8.708;2022-12-07T13:13:33;11.93;;;6.67;;
28551;SDS011;15752;49.560;8.708;2022-12-07T13:25:21;11.17;;;7.57;;
28551;SDS011;15752;49.560;8.708;2022-12-07T13:28:08;8.47;;;6.30;;
28551;SDS011;15752;49.560;8.708;2022-12-07T13:30:45;10.73;;;7.07;;
28551;SDS011;15752;49.560;8.708;2022-12-07T13:33:30;9.80;;;7.20;;
28551;SDS011;15752;49.560;8.708;2022-12-07T13:36:02;8.33;;;6.70;;
28551;SDS011;15752;49.560;8.708;2022-12-07T13:38:32;9.13;;;7.10;;
28551;SDS011;15752;49.560;8.708;2022-12-07T13:41:11;10.73;;;7.10;;
28551;SDS011;15752;49.560;8.708;2022-12-07T13:43:43;10.13;;;7.30;;
28551;SDS011;15752;49.560;8.708;2022-12-07T13:46:13;9.47;;;6.37;;
28551;SDS011;15752;49.560;8.708;2022-12-07T13:48:45;8.37;;;6.10;;
28551;SDS011;15752;49.560;8.708;2022-12-07T13:51:20;8.30;;;5.83;;
28551;SDS011;15752;49.560;8.708;2022-12-07T13:53:51;7.23;;;5.67;;
28551;SDS011;15752;49.560;8.708;2022-12-07T13:56:25;8.83;;;6.17;;
28551;SDS011;15752;49.560;8.708;2022-12-07T13:59:00;9.87;;;7.17;;
28551;SDS011;15752;49.560;8.708;2022-12-07T14:01:30;8.80;;;6.40;;
28551;SDS011;15752;49.560;8.708;2022-12-07T14:07:00;8.67;;;6.83;;
28551;SDS011;15752;49.560;8.708;2022-12-07T14:09:57;8.70;;;6.80;;
28551;SDS011;15752;49.560;8.708;2022-12-07T14:12:29;9.47;;;6.70;;
28551;SDS011;15752;49.560;8.708;2022-12-07T14:14:59;9.20;;;6.90;;
28551;SDS011;15752;49.560;8.708;2022-12-07T14:17:30;8.87;;;6.80;;
28551;SDS011;15752;49.560;8.708;2022-12-07T14:19:59;8.50;;;6.60;;
28551;SDS011;15752;49.560;8.708;2022-12-07T14:22:32;8.57;;;6.93;;
28551;SDS011;15752;49.560;8.708;2022-12-07T14:25:20;8.37;;;6.50;;
28551;SDS011;15752;49.560;8.708;2022-12-07T14:27:53;7.27;;;6.33;;
28551;SDS011;15752;49.560;8.708;2022-12-07T14:30:25;7.90;;;6.00;;
28551;SDS011;15752;49.560;8.708;2022-12-07T14:32:57;11.07;;;6.30;;
28551;SDS011;15752;49.560;8.708;2022-12-07T14:35:28;8.97;;;6.00;;
28551;SDS011;15752;49.560;8.708;2022-12-07T14:37:57;8.63;;;6.30;;
28551;SDS011;15752;49.560;8.708;2022-12-07T14:40:27;8.43;;;6.40;;
28551;SDS011;15752;49.560;8.708;2022-12-07T14:43:00;7.50;;;5.60;;
28551;SDS011;15752;49.560;8.708;2022-12-07T14:45:31;7.60;;;5.23;;
28551;SDS011;15752;49.560;8.708;2022-12-07T14:47:59;8.53;;;5.00;;
28551;SDS011;15752;49.560;8.708;2022-12-07T14:50:49;8.27;;;5.40;;
28551;SDS011;15752;49.560;8.708;2022-12-07T14:53:40;7.63;;;5.10;;
28551;SDS011;15752;49.560;8.708;2022-12-07T14:56:20;6.07;;;5.10;;
28551;SDS011;15752;49.560;8.708;2022-12-07T14:58:50;6.60;;;4.77;;
28551;SDS011;15752;49.560;8.708;2022-12-07T15:01:19;6.47;;;4.90;;
28551;SDS011;15752;49.560;8.708;2022-12-07T15:03:47;8.17;;;4.73;;
28551;SDS011;15752;49.560;8.708;2022-12-07T15:06:17;8.77;;;4.37;;
28551;SDS011;15752;49.560;8.708;2022-12-07T15:08:46;8.77;;;5.27;;
28551;SDS011;15752;49.560;8.708;2022-12-07T15:11:25;8.03;;;5.00;;
28551;SDS011;15752;49.560;8.708;2022-12-07T15:13:55;8.07;;;5.33;;
28551;SDS011;15752;49.560;8.708;2022-12-07T15:16:37;8.70;;;6.10;;
28551;SDS011;15752;49.560;8.708;2022-12-07T15:19:28;12.00;;;6.63;;
28551;SDS011;15752;49.560;8.708;2022-12-07T15:21:56;9.23;;;6.00;;
28551;SDS011;15752;49.560;8.708;2022-12-07T15:24:26;8.10;;;5.63;;
28551;SDS011;15752;49.560;8.708;2022-12-07T15:26:55;9.47;;;6.00;;
28551;SDS011;15752;49.560;8.708;2022-12-07T15:29:25;15.30;;;8.50;;
28551;SDS011;15752;49.560;8.708;2022-12-07T15:31:53;15.33;;;8.33;;
28551;SDS011;15752;49.560;8.708;2022-12-07T15:34:24;19.73;;;9.70;;
28551;SDS011;15752;49.560;8.708;2022-12-07T15:37:04;17.80;;;10.83;;
28551;SDS011;15752;49.560;8.708;2022-12-07T15:39:32;19.97;;;11.03;;
28551;SDS011;15752;49.560;8.708;2022-12-07T15:42:01;17.73;;;11.17;;
28551;SDS011;15752;49.560;8.708;2022-12-07T15:44:32;19.17;;;11.03;;
28551;SDS011;15752;49.560;8.708;2022-12-07T15:47:17;15.67;;;9.70;;
28551;SDS011;15752;49.560;8.708;2022-12-07T15:49:48;15.00;;;10.00;;
28551;SDS011;15752;49.560;8.708;2022-12-07T15:52:17;12.87;;;8.23;;
28551;SDS011;15752;49.560;8.708;2022-12-07T15:54:45;11.13;;;7.60;;
28551;SDS011;15752;49.560;8.708;2022-12-07T15:57:14;12.80;;;7.50;;
28551;SDS011;15752;49.560;8.708;2022-12-07T15:59:52;10.23;;;7.00;;
28551;SDS011;15752;49.560;8.708;2022-12-07T16:02:21;10.03;;;7.67;;
28551;SDS011;15752;49.560;8.708;2022-12-07T16:04:51;12.17;;;9.03;;